Time;durP1;ratioP1;P1;durP2;ratioP2;P2;SDS_P1;SDS_P2;PMS_P1;PMS_P2;Temp;Humidity;BMP_temperature;BMP_pressure;BME280_temperature;BME280_humidity;BME280_pressure;Samples;Min_cycle;Max_cycle;Signal;HPM_P1;HPM_P2
2023/05/31 00:02:30;;;;;;;;;;;;;;;29.42;35.30;94225.59;4897281;29;7895;-61
2023/05/31 00:04:58;;;;;;;;;;;;;;;29.40;35.44;94222.63;4908841;29;7301;-61
2023/05/31 00:07:25;;;;;;;;;;;;;;;29.39;35.81;94215.59;4923373;29;6984;-61
2023/05/31 00:09:53;;;;;;;;;;;;;;;29.39;35.73;94216.34;4930770;29;7384;-61
2023/05/31 00:12:37;;;;;;;;;;;;;;;29.37;35.53;94204.31;4948548;28;7524;-60
2023/05/31 00:15:05;;;;;;;;;;;;;;;29.38;35.10;94201.00;4921895;29;7195;-60
2023/05/31 00:17:31;;;;;;;;;;;;;;;29.36;35.47;94206.31;4933783;29;7305;-61
2023/05/31 00:20:26;;;;;;;;;;;;;;;29.38;35.17;94209.31;4950194;28;9699;-61
2023/05/31 00:22:52;;;;;;;;;;;;;;;29.38;35.59;94203.03;4906783;28;9046;-61
2023/05/31 00:25:18;;;;;;;;;;;;;;;29.37;35.78;94204.31;4920299;28;7294;-61
2023/05/31 00:27:47;;;;;;;;;;;;;;;29.34;35.09;94202.63;4942944;28;7034;-61
2023/05/31 00:30:22;;;;;;;;;;;;;;;29.37;35.86;94201.53;4923609;28;9105;-61
2023/05/31 00:32:50;;;;;;;;;;;;;;;29.34;35.27;94202.63;4927981;29;8951;-61
2023/05/31 00:35:22;;;;;;;;;;;;;;;29.35;36.10;94204.09;4933971;28;7297;-61
2023/05/31 00:37:50;;;;;;;;;;;;;;;29.35;35.40;94201.34;4931214;28;7689;-61
2023/05/31 00:40:17;;;;;;;;;;;;;;;29.33;35.99;94193.56;4934590;28;8705;-61
2023/05/31 00:43:01;;;;;;;;;;;;;;;29.33;35.27;94199.09;4958217;28;7040;-61
2023/05/31 00:45:28;;;;;;;;;;;;;;;29.32;35.79;94199.66;4935838;28;9024;-61
2023/05/31 00:48:04;;;;;;;;;;;;;;;29.32;35.63;94200.38;4929107;29;7015;-61
2023/05/31 00:50:34;;;;;;;;;;;;;;;29.32;35.43;94194.13;4960181;28;7312;-62
2023/05/31 00:53:18;;;;;;;;;;;;;;;29.31;34.90;94204.44;4934627;28;9119;-61
2023/05/31 00:56:06;;;;;;;;;;;;;;;29.30;34.95;94207.75;4943746;28;7562;-61
2023/05/31 00:58:49;;;;;;;;;;;;;;;29.28;35.21;94199.22;4961548;28;7041;-61
2023/05/31 01:01:26;;;;;;;;;;;;;;;29.30;35.96;94196.66;5010428;28;8239;-61
2023/05/31 01:04:03;;;;;;;;;;;;;;;29.30;35.14;94196.66;5008444;28;9257;-61
2023/05/31 01:06:32;;;;;;;;;;;;;;;29.28;35.90;94188.16;5004280;28;7049;-61
2023/05/31 01:09:09;;;;;;;;;;;;;;;29.29;35.21;94192.41;5024186;28;7043;-61
2023/05/31 01:11:40;;;;;;;;;;;;;;;29.26;35.79;94194.22;5021824;28;7451;-61
2023/05/31 01:14:40;;;;;;;;;;;;;;;29.28;36.21;94196.47;5020650;28;9021;-61
2023/05/31 01:17:45;;;;;;;;;;;;;;;29.26;35.84;94187.94;5019513;28;7045;-60
2023/05/31 01:20:17;;;;;;;;;;;;;;;29.23;35.60;94180.72;4945510;28;8952;-61
2023/05/31 01:22:54;;;;;;;;;;;;;;;29.23;35.01;94180.72;4963154;28;7052;-61
2023/05/31 01:26:01;;;;;;;;;;;;;;;29.18;35.19;94179.59;4952715;28;7337;-61
2023/05/31 01:29:14;;;;;;;;;;;;;;;29.18;35.61;94184.38;4951293;29;7054;-61
2023/05/31 01:31:57;;;;;;;;;;;;;;;29.13;35.90;94174.13;4966825;28;7244;-61
2023/05/31 01:34:35;;;;;;;;;;;;;;;29.11;35.97;94182.97;4936216;29;7301;-61
2023/05/31 01:37:10;;;;;;;;;;;;;;;29.11;35.65;94182.97;4951347;29;7456;-61
2023/05/31 01:39:52;;;;;;;;;;;;;;;29.08;35.42;94181.28;4934255;29;7328;-61
2023/05/31 01:42:56;;;;;;;;;;;;;;;29.09;35.62;94185.56;4950634;29;9117;-61
2023/05/31 01:45:26;;;;;;;;;;;;;;;29.09;35.68;94185.56;4951383;29;9489;-61
2023/05/31 01:48:10;;;;;;;;;;;;;;;29.09;36.14;94191.09;4961911;28;9188;-61
2023/05/31 01:50:46;;;;;;;;;;;;;;;29.07;36.04;94194.41;4951397;29;7278;-61
2023/05/31 01:53:12;;;;;;;;;;;;;;;29.06;36.10;94195.69;4940605;29;9394;-61
2023/05/31 01:55:54;;;;;;;;;;;;;;;29.05;35.77;94191.44;4949667;29;9206;-61
2023/05/31 01:58:31;;;;;;;;;;;;;;;29.04;36.11;94192.69;4962043;28;8643;-61
2023/05/31 02:01:02;;;;;;;;;;;;;;;29.04;35.31;94184.41;4965407;28;7648;-61
2023/05/31 02:03:53;;;;;;;;;;;;;;;29.04;35.31;94183.66;5015782;28;7032;-61
2023/05/31 02:06:34;;;;;;;;;;;;;;;29.04;35.27;94184.41;5012913;28;9325;-60
2023/05/31 02:09:00;;;;;;;;;;;;;;;29.04;35.70;94180.88;5021253;28;9362;-61
2023/05/31 02:11:34;;;;;;;;;;;;;;;29.03;35.55;94191.22;5020140;28;9327;-61
2023/05/31 02:14:06;;;;;;;;;;;;;;;29.02;35.47;94186.97;5010872;28;8234;-61
2023/05/31 02:17:13;;;;;;;;;;;;;;;29.03;35.99;94184.94;5014120;28;8768;-61
2023/05/31 02:20:14;;;;;;;;;;;;;;;29.02;35.19;94180.66;4930874;28;9125;-61
2023/05/31 02:23:02;;;;;;;;;;;;;;;29.01;35.99;94182.69;4914519;29;7276;-61
2023/05/31 02:25:37;;;;;;;;;;;;;;;29.01;36.26;94181.97;4920957;29;9430;-61
2023/05/31 02:28:12;;;;;;;;;;;;;;;29.00;35.00;94189.53;4899719;29;9366;-61
2023/05/31 02:31:00;;;;;;;;;;;;;;;28.99;36.28;94184.53;4903554;29;7512;-61
2023/05/31 02:33:45;;;;;;;;;;;;;;;28.99;36.18;94190.06;4917268;29;7056;-61
2023/05/31 02:36:22;;;;;;;;;;;;;;;28.98;35.87;94188.56;4929092;29;7508;-61
2023/05/31 02:38:50;;;;;;;;;;;;;;;28.97;35.43;94187.81;4918305;29;7049;-61
2023/05/31 02:41:32;;;;;;;;;;;;;;;28.97;36.05;94193.38;4905992;29;7014;-61
2023/05/31 02:44:07;;;;;;;;;;;;;;;28.97;35.73;94187.09;4903615;29;8671;-61
2023/05/31 02:46:34;;;;;;;;;;;;;;;28.96;35.31;94185.59;4908370;29;7100;-61
2023/05/31 02:49:14;;;;;;;;;;;;;;;28.95;35.60;94189.63;4916880;29;8744;-61
2023/05/31 02:51:50;;;;;;;;;;;;;;;28.92;35.50;94188.72;4921411;29;8770;-61
2023/05/31 02:54:23;;;;;;;;;;;;;;;28.90;35.81;94185.00;4978771;28;8614;-61
2023/05/31 02:57:20;;;;;;;;;;;;;;;28.94;36.13;94191.69;5017674;28;7247;-60
2023/05/31 02:59:49;;;;;;;;;;;;;;;28.93;35.84;94186.66;5040621;28;7231;-61
2023/05/31 03:02:26;;;;;;;;;;;;;;;28.93;35.89;94183.91;5022669;28;7348;-61
2023/05/31 03:04:54;;;;;;;;;;;;;;;28.92;36.08;94183.19;5034869;28;7053;-61
2023/05/31 03:07:22;;;;;;;;;;;;;;;28.92;36.29;94185.94;5025324;28;9126;-61
2023/05/31 03:09:48;;;;;;;;;;;;;;;28.91;35.80;94187.22;5014169;28;7039;-61
2023/05/31 03:12:15;;;;;;;;;;;;;;;28.90;35.25;94176.69;5025433;28;9385;-61
2023/05/31 03:14:42;;;;;;;;;;;;;;;28.90;35.60;94179.47;5007509;28;7272;-61
2023/05/31 03:17:08;;;;;;;;;;;;;;;28.90;36.03;94182.97;5012852;28;8644;-59
2023/05/31 03:19:34;;;;;;;;;;;;;;;28.87;35.56;94186.81;5021789;28;9377;-61
2023/05/31 03:22:01;;;;;;;;;;;;;;;28.88;36.26;94188.28;5004626;28;6851;-61
2023/05/31 03:24:27;;;;;;;;;;;;;;;28.91;35.17;94189.97;5016114;28;7110;-61
2023/05/31 03:26:54;;;;;;;;;;;;;;;28.92;35.44;94183.19;5028488;28;8173;-61
2023/05/31 03:29:20;;;;;;;;;;;;;;;28.95;35.93;94184.09;5009732;28;7352;-61
2023/05/31 03:31:55;;;;;;;;;;;;;;;28.95;35.49;94182.09;5008989;28;7658;-61
2023/05/31 03:34:28;;;;;;;;;;;;;;;28.91;35.95;94176.13;5009574;28;8926;-61
2023/05/31 03:36:56;;;;;;;;;;;;;;;28.96;35.67;94175.28;5011553;28;8693;-61
2023/05/31 03:39:22;;;;;;;;;;;;;;;28.98;35.35;94177.50;5011444;28;8220;-61
2023/05/31 03:41:49;;;;;;;;;;;;;;;28.98;35.81;94177.50;5024453;28;7319;-61
2023/05/31 03:44:15;;;;;;;;;;;;;;;28.99;35.60;94181.78;5037771;28;9025;-61
2023/05/31 03:46:44;;;;;;;;;;;;;;;28.98;35.73;94183.78;5038028;28;8936;-61
2023/05/31 03:49:24;;;;;;;;;;;;;;;28.97;35.41;94176.75;5035598;28;7188;-61
2023/05/31 03:52:23;;;;;;;;;;;;;;;28.98;35.46;94189.31;5042343;28;7034;-61
2023/05/31 03:55:05;;;;;;;;;;;;;;;28.98;35.12;94192.09;5022530;28;8654;-61
2023/05/31 03:57:44;;;;;;;;;;;;;;;28.97;36.07;94190.59;5024308;28;8737;-61
2023/05/31 04:00:13;;;;;;;;;;;;;;;28.97;35.05;94192.63;5008205;28;9498;-61
2023/05/31 04:02:39;;;;;;;;;;;;;;;28.98;35.88;94189.31;5010211;28;8746;-61
2023/05/31 04:05:17;;;;;;;;;;;;;;;28.97;35.39;94198.91;5014230;28;9104;-61
2023/05/31 04:08:22;;;;;;;;;;;;;;;28.97;36.00;94192.63;5005412;28;9593;-61
2023/05/31 04:10:49;;;;;;;;;;;;;;;28.96;35.92;94191.88;5014116;28;7013;-61
2023/05/31 04:13:26;;;;;;;;;;;;;;;28.96;35.57;94197.44;5012747;28;7548;-61
2023/05/31 04:16:08;;;;;;;;;;;;;;;28.97;35.95;94198.91;5008882;28;7129;-61
2023/05/31 04:18:46;;;;;;;;;;;;;;;28.96;35.72;94202.97;5012740;28;8770;-61
2023/05/31 04:21:22;;;;;;;;;;;;;;;28.96;35.90;94214.03;5031123;28;9084;-61
2023/05/31 04:24:05;;;;;;;;;;;;;;;28.95;35.97;94212.53;5012893;28;7517;-60
2023/05/31 04:26:58;;;;;;;;;;;;;;;28.95;35.52;94207.00;5006926;28;7029;-61
2023/05/31 04:29:29;;;;;;;;;;;;;;;28.94;35.51;94210.31;5008205;28;9143;-61
2023/05/31 04:32:28;;;;;;;;;;;;;;;28.95;35.74;94212.53;5020331;28;7039;-61
2023/05/31 04:34:57;;;;;;;;;;;;;;;28.94;35.28;94218.63;4968868;28;7236;-61
2023/05/31 04:37:37;;;;;;;;;;;;;;;28.94;35.74;94221.41;4981852;28;7358;-61
2023/05/31 04:40:05;;;;;;;;;;;;;;;28.93;35.48;94223.41;4972395;28;9041;-61
2023/05/31 04:42:33;;;;;;;;;;;;;;;28.91;35.90;94217.66;4978628;28;7994;-61
2023/05/31 04:45:06;;;;;;;;;;;;;;;28.93;34.93;94222.66;4985902;28;9164;-61
2023/05/31 04:47:52;;;;;;;;;;;;;;;28.92;35.31;94219.16;4985262;28;7182;-61
2023/05/31 04:50:18;;;;;;;;;;;;;;;28.94;35.45;94222.16;4974313;28;7510;-61
2023/05/31 04:52:46;;;;;;;;;;;;;;;28.94;35.26;94230.44;4985865;28;9277;-61
2023/05/31 04:55:12;;;;;;;;;;;;;;;28.93;35.07;94223.41;4971500;28;9093;-61
2023/05/31 04:57:38;;;;;;;;;;;;;;;28.95;35.60;94225.63;4964570;28;9008;-61
2023/05/31 05:00:09;;;;;;;;;;;;;;;28.96;35.47;94229.91;4980406;28;7225;-61
2023/05/31 05:03:02;;;;;;;;;;;;;;;28.95;35.51;94225.63;4982916;28;9097;-61
2023/05/31 05:06:10;;;;;;;;;;;;;;;28.94;35.98;94227.69;4971637;28;8305;-61
2023/05/31 05:09:01;;;;;;;;;;;;;;;28.96;35.92;94225.13;4969836;28;9939;-61
2023/05/31 05:11:41;;;;;;;;;;;;;;;28.96;35.55;94235.44;5006279;28;9375;-61
2023/05/31 05:14:07;;;;;;;;;;;;;;;28.95;34.98;94240.22;5010307;28;7294;-61
2023/05/31 05:16:37;;;;;;;;;;;;;;;28.95;35.48;94239.47;5012489;28;7111;-61
2023/05/31 05:19:05;;;;;;;;;;;;;;;28.96;35.75;94236.19;5023759;28;8745;-61
2023/05/31 05:21:33;;;;;;;;;;;;;;;28.94;35.38;94241.53;5016954;28;7228;-61
2023/05/31 05:24:06;;;;;;;;;;;;;;;28.93;35.81;94231.72;5005884;28;9756;-61
2023/05/31 05:27:01;;;;;;;;;;;;;;;28.94;36.37;94235.25;5005100;28;9345;-61
2023/05/31 05:29:37;;;;;;;;;;;;;;;28.94;36.22;94236.00;4951376;28;9073;-60
2023/05/31 05:32:11;;;;;;;;;;;;;;;28.92;36.12;94235.78;4965307;28;7295;-60
2023/05/31 05:34:46;;;;;;;;;;;;;;;28.93;36.15;94245.56;4926645;28;9481;-60
2023/05/31 05:37:13;;;;;;;;;;;;;;;28.95;36.25;94245.78;4952589;28;8736;-60
2023/05/31 05:40:16;;;;;;;;;;;;;;;28.96;36.25;94252.81;4947734;28;7611;-61
2023/05/31 05:46:48;;;;;;;;;;;;;;;28.95;37.49;94251.31;4951879;28;6930;-60
2023/05/31 05:49:37;;;;;;;;;;;;;;;28.97;37.01;94259.81;4951903;28;7256;-60
2023/05/31 05:52:05;;;;;;;;;;;;;;;28.96;36.18;94255.56;4980880;28;9878;-60
2023/05/31 05:54:32;;;;;;;;;;;;;;;28.96;36.22;94249.28;4951084;28;8725;-60
2023/05/31 05:57:19;;;;;;;;;;;;;;;28.95;36.50;94251.31;4956059;28;9439;-60
2023/05/31 06:00:34;;;;;;;;;;;;;;;28.97;36.81;94253.56;4943337;28;7242;-60
2023/05/31 06:03:00;;;;;;;;;;;;;;;28.95;36.29;94248.53;4962713;28;9647;-60
2023/05/31 06:06:00;;;;;;;;;;;;;;;28.97;36.60;94259.09;4986700;28;7186;-60
2023/05/31 06:08:26;;;;;;;;;;;;;;;28.97;37.84;94257.06;4910939;29;7210;-60
2023/05/31 06:11:03;;;;;;;;;;;;;;;28.97;38.21;94259.81;4906686;29;7106;-60
2023/05/31 06:13:39;;;;;;;;;;;;;;;29.00;37.76;94252.47;4915406;29;6872;-60
2023/05/31 06:16:10;;;;;;;;;;;;;;;28.98;37.75;94255.78;4907007;29;7239;-60
2023/05/31 06:18:35;;;;;;;;;;;;;;;29.01;37.83;94259.50;4896046;29;9859;-60
2023/05/31 06:21:02;;;;;;;;;;;;;;;28.97;38.66;94259.81;4912403;29;7478;-59
2023/05/31 06:23:39;;;;;;;;;;;;;;;28.98;38.61;94266.84;4899380;29;8757;-60
2023/05/31 06:26:38;;;;;;;;;;;;;;;29.01;38.68;94265.03;4899292;29;9411;-60
2023/05/31 06:29:05;;;;;;;;;;;;;;;29.01;38.42;94257.47;4875378;29;7632;-61
2023/05/31 06:32:02;;;;;;;;;;;;;;;29.03;38.95;94259.72;4863024;29;9041;-60
2023/05/31 06:34:45;;;;;;;;;;;;;;;29.03;38.00;94259.72;4804727;29;8710;-60
2023/05/31 06:37:37;;;;;;;;;;;;;;;29.02;38.18;94255.44;4808873;29;9118;-59
2023/05/31 06:40:14;;;;;;;;;;;;;;;29.00;38.43;94263.53;4817473;29;7041;-59
2023/05/31 06:42:49;;;;;;;;;;;;;;;29.01;38.46;94253.97;4821319;29;8961;-60
2023/05/31 06:45:17;;;;;;;;;;;;;;;28.99;37.75;94253.75;4876289;29;7273;-59
2023/05/31 06:47:46;;;;;;;;;;;;;;;29.00;38.20;94258.00;4892520;29;7281;-59
2023/05/31 06:50:13;;;;;;;;;;;;;;;29.02;37.46;94261.72;4892131;29;7413;-59
2023/05/31 06:52:41;;;;;;;;;;;;;;;29.02;37.17;94258.97;4880779;29;9067;-60
2023/05/31 06:55:08;;;;;;;;;;;;;;;29.03;37.67;94268.78;4894868;29;8712;-59
2023/05/31 06:58:03;;;;;;;;;;;;;;;29.05;37.03;94276.53;4891299;29;7267;-59
2023/05/31 07:00:58;;;;;;;;;;;;;;;29.05;37.15;94266.22;4839728;29;7256;-59
2023/05/31 07:03:26;;;;;;;;;;;;;;;29.05;38.29;94277.28;4785988;30;9493;-59
2023/05/31 07:06:04;;;;;;;;;;;;;;;29.05;38.52;94276.53;4799308;29;7112;-59
2023/05/31 07:08:32;;;;;;;;;;;;;;;29.04;37.68;94264.72;4813139;29;7314;-59
2023/05/31 07:11:21;;;;;;;;;;;;;;;29.04;37.80;94270.25;4817488;29;7754;-59
2023/05/31 07:13:59;;;;;;;;;;;;;;;29.04;38.72;94269.50;4858702;29;7121;-59
2023/05/31 07:16:58;;;;;;;;;;;;;;;29.04;38.06;94267.47;4838880;29;9392;-59
2023/05/31 07:19:24;;;;;;;;;;;;;;;29.03;38.83;94279.09;4842913;29;8966;-60
2023/05/31 07:21:51;;;;;;;;;;;;;;;29.05;38.41;94276.53;4871248;29;8701;-60
2023/05/31 07:24:27;;;;;;;;;;;;;;;29.04;38.13;94275.03;4867178;29;9039;-60
2023/05/31 07:27:03;;;;;;;;;;;;;;;29.00;39.07;94269.84;4848503;29;7444;-60
2023/05/31 07:29:31;;;;;;;;;;;;;;;29.02;38.58;94272.81;4838916;29;7294;-60
2023/05/31 07:32:03;;;;;;;;;;;;;;;28.99;38.27;94253.75;4840194;29;8826;-59
2023/05/31 07:34:31;;;;;;;;;;;;;;;29.01;38.90;94265.03;4862427;29;9127;-60
2023/05/31 07:36:57;;;;;;;;;;;;;;;29.01;38.74;94265.03;4860739;29;8914;-60
2023/05/31 07:39:23;;;;;;;;;;;;;;;28.97;39.27;94267.41;4959201;28;7269;-60
2023/05/31 07:41:50;;;;;;;;;;;;;;;28.95;38.89;94262.38;5030697;28;9083;-59
2023/05/31 07:44:19;;;;;;;;;;;;;;;28.97;38.86;94267.41;5027283;28;9380;-60
2023/05/31 07:46:50;;;;;;;;;;;;;;;28.96;38.78;94268.66;5027531;28;9328;-59
2023/05/31 07:49:31;;;;;;;;;;;;;;;28.94;38.55;94269.22;5023811;28;7115;-60
2023/05/31 07:52:07;;;;;;;;;;;;;;;28.96;38.13;94254.81;5026017;28;9090;-59
2023/05/31 07:55:07;;;;;;;;;;;;;;;28.99;38.41;94268.34;5007284;28;7078;-60
2023/05/31 07:57:45;;;;;;;;;;;;;;;28.97;38.51;94270.91;4950616;28;9479;-60
2023/05/31 08:00:51;;;;;;;;;;;;;;;29.00;39.00;94269.09;4935812;28;8761;-59
2023/05/31 08:03:37;;;;;;;;;;;;;;;28.99;38.61;94262.06;4954692;28;7610;-59
2023/05/31 08:06:04;;;;;;;;;;;;;;;29.02;38.05;94261.72;4950904;28;7233;-60
2023/05/31 08:08:32;;;;;;;;;;;;;;;29.03;38.36;94262.47;4960392;28;8687;-60
2023/05/31 08:11:14;;;;;;;;;;;;;;;29.04;38.27;94264.72;4947168;28;7423;-60
2023/05/31 08:14:10;;;;;;;;;;;;;;;29.04;37.73;94259.16;4952424;28;7229;-60
2023/05/31 08:16:55;;;;;;;;;;;;;;;29.04;37.72;94263.94;4931522;29;8991;-59
2023/05/31 08:19:23;;;;;;;;;;;;;;;29.04;38.04;94270.25;4936084;28;8170;-60
2023/05/31 08:21:58;;;;;;;;;;;;;;;29.02;38.60;94275.56;4934793;28;9876;-60
2023/05/31 08:24:32;;;;;;;;;;;;;;;29.00;37.53;94264.28;4931127;28;9449;-60
2023/05/31 08:27:07;;;;;;;;;;;;;;;29.01;37.65;94260.22;4930996;28;7133;-60
2023/05/31 08:29:46;;;;;;;;;;;;;;;29.03;37.19;94256.94;4932480;28;7441;-60
2023/05/31 08:32:24;;;;;;;;;;;;;;;29.04;37.48;94259.16;4937873;28;9017;-59
2023/05/31 08:34:53;;;;;;;;;;;;;;;29.06;37.32;94259.38;4968794;28;9375;-60
2023/05/31 08:37:20;;;;;;;;;;;;;;;29.06;36.63;94253.09;4985762;28;8882;-60
2023/05/31 08:39:58;;;;;;;;;;;;;;;29.05;37.30;94257.91;4974827;28;8966;-60
2023/05/31 08:42:32;;;;;;;;;;;;;;;29.07;37.28;94255.34;4972648;28;8927;-60
2023/05/31 08:45:06;;;;;;;;;;;;;;;29.08;37.26;94265.13;4983979;28;9353;-60
2023/05/31 08:48:28;;;;;;;;;;;;;;;29.09;36.65;94252.03;4969983;28;9073;-60
2023/05/31 08:51:02;;;;;;;;;;;;;;;29.08;37.09;94259.56;4914768;29;9459;-60
2023/05/31 08:53:59;;;;;;;;;;;;;;;29.11;37.30;94257.75;4937955;28;7246;-60
2023/05/31 08:56:37;;;;;;;;;;;;;;;29.11;36.65;94257.75;4920813;29;7006;-60
2023/05/31 08:59:18;;;;;;;;;;;;;;;29.13;37.48;94254.44;4916823;29;9055;-59
2023/05/31 09:02:17;;;;;;;;;;;;;;;29.15;36.42;94249.88;4932780;29;9391;-60
2023/05/31 09:04:43;;;;;;;;;;;;;;;29.13;36.82;94254.44;4898804;29;9446;-60
2023/05/31 09:07:20;;;;;;;;;;;;;;;29.08;36.95;94254.03;4913264;29;7042;-60
2023/05/31 09:09:58;;;;;;;;;;;;;;;29.09;36.66;94263.84;4908549;29;8942;-59
2023/05/31 09:12:33;;;;;;;;;;;;;;;29.07;37.31;94252.56;4897229;29;9185;-59
2023/05/31 09:15:31;;;;;;;;;;;;;;;29.09;37.75;94261.06;4901956;29;9003;-60
2023/05/31 09:18:21;;;;;;;;;;;;;;;29.12;37.55;94261.28;4840246;29;7309;-60
2023/05/31 09:20:55;;;;;;;;;;;;;;;29.03;38.94;94256.94;4824221;29;6992;-60
2023/05/31 09:23:22;;;;;;;;;;;;;;;29.01;38.63;94260.22;4839965;29;9013;-60
2023/05/31 09:25:55;;;;;;;;;;;;;;;29.05;38.24;94254.38;4820286;29;7053;-60
2023/05/31 09:28:25;;;;;;;;;;;;;;;29.06;38.56;94251.06;4833192;29;9704;-60
2023/05/31 09:31:27;;;;;;;;;;;;;;;29.05;38.21;94254.38;4833541;29;8691;-60
2023/05/31 09:34:29;;;;;;;;;;;;;;;29.09;37.86;94254.78;4813820;29;7129;-60
2023/05/31 09:36:59;;;;;;;;;;;;;;;29.14;38.12;94247.63;4834431;29;7276;-61
2023/05/31 09:39:27;;;;;;;;;;;;;;;29.16;37.59;94248.63;4811992;29;7438;-60
2023/05/31 09:41:57;;;;;;;;;;;;;;;29.20;38.11;94251.06;4876566;29;9039;-60
2023/05/31 09:44:29;;;;;;;;;;;;;;;29.19;42.43;94253.06;4889709;29;6931;-60
2023/05/31 09:46:55;;;;;;;;;;;;;;;29.23;41.33;94247.94;4889639;29;7113;-60
2023/05/31 09:49:24;;;;;;;;;;;;;;;29.27;40.04;94248.38;4870585;29;6987;-60
2023/05/31 09:51:52;;;;;;;;;;;;;;;29.29;40.19;94251.34;4869249;29;9339;-60
2023/05/31 09:54:44;;;;;;;;;;;;;;;29.28;40.00;94249.84;4910181;28;9014;-60
2023/05/31 09:57:40;;;;;;;;;;;;;;;29.28;39.11;94238.00;4948652;29;7232;-60
2023/05/31 10:00:22;;;;;;;;;;;;;;;29.32;38.88;94244.00;4966917;28;8925;-60
2023/05/31 10:03:17;;;;;;;;;;;;;;;29.34;38.91;94233.09;4948947;29;7484;-60
2023/05/31 10:05:47;;;;;;;;;;;;;;;29.33;38.85;94237.16;4877844;29;7045;-60
2023/05/31 10:08:13;;;;;;;;;;;;;;;29.35;38.99;94243.63;4904947;29;7297;-59
2023/05/31 10:10:39;;;;;;;;;;;;;;;29.36;38.84;94231.25;4925917;29;7174;-60
2023/05/31 10:13:13;;;;;;;;;;;;;;;29.37;38.84;94240.31;4924039;29;7308;-59
2023/05/31 10:15:41;;;;;;;;;;;;;;;29.38;39.30;94237.03;4938966;28;8790;-60
2023/05/31 10:18:13;;;;;;;;;;;;;;;29.39;39.26;94237.75;4929830;29;7191;-60
2023/05/31 10:21:31;;;;;;;;;;;;;;;29.41;39.82;94237.97;4930193;29;7024;-60
2023/05/31 10:24:26;;;;;;;;;;;;;;;29.41;39.24;94235.94;4910633;29;9660;-60
2023/05/31 10:27:11;;;;;;;;;;;;;;;29.42;39.69;94239.47;4905618;29;7234;-60
2023/05/31 10:30:12;;;;;;;;;;;;;;;29.44;38.67;94236.88;4923022;29;7290;-60
2023/05/31 10:33:16;;;;;;;;;;;;;;;29.44;39.24;94239.66;4888025;29;7014;-60
2023/05/31 10:36:00;;;;;;;;;;;;;;;29.44;38.75;94228.56;4911330;29;9273;-60
2023/05/31 10:38:55;;;;;;;;;;;;;;;29.46;38.52;94242.63;4911009;29;7231;-60
2023/05/31 10:41:41;;;;;;;;;;;;;;;29.45;38.57;94230.78;4906833;28;7042;-61
2023/05/31 10:44:19;;;;;;;;;;;;;;;29.43;38.90;94229.84;4954451;28;7732;-60
2023/05/31 10:47:01;;;;;;;;;;;;;;;29.47;39.22;94227.50;4970850;28;7100;-60
2023/05/31 10:49:34;;;;;;;;;;;;;;;29.48;39.33;94226.19;4968002;28;7245;-61
2023/05/31 10:52:14;;;;;;;;;;;;;;;29.50;38.56;94229.19;4947322;28;9022;-60
2023/05/31 10:55:17;;;;;;;;;;;;;;;29.53;39.25;94222.56;4969423;28;9022;-60
2023/05/31 10:58:38;;;;;;;;;;;;;;;29.53;38.48;94222.56;4972160;28;9052;-60
2023/05/31 11:01:28;;;;;;;;;;;;;;;29.51;38.69;94216.81;4985497;28;8413;-60
2023/05/31 11:04:24;;;;;;;;;;;;;;;29.52;39.42;94227.34;4985744;28;7679;-61
2023/05/31 11:07:12;;;;;;;;;;;;;;;29.53;38.66;94214.25;4975438;28;7305;-60
2023/05/31 11:09:40;;;;;;;;;;;;;;;29.54;38.85;94226.81;4993691;28;7196;-60
2023/05/31 11:12:29;;;;;;;;;;;;;;;29.53;38.68;94219.78;5021951;28;8973;-60
2023/05/31 11:15:04;;;;;;;;;;;;;;;29.55;38.99;94209.66;5029940;28;7622;-60
2023/05/31 11:18:03;;;;;;;;;;;;;;;29.56;38.39;94218.69;5031143;28;7292;-60
2023/05/31 11:20:39;;;;;;;;;;;;;;;29.56;38.14;94218.69;4966250;28;7282;-60
2023/05/31 11:23:24;;;;;;;;;;;;;;;29.53;38.62;94217.78;4946005;28;6960;-60
2023/05/31 11:26:35;;;;;;;;;;;;;;;29.58;37.69;94227.22;4949307;28;7105;-60
2023/05/31 11:29:13;;;;;;;;;;;;;;;29.60;39.03;94211.53;4933785;28;7254;-61
2023/05/31 11:31:55;;;;;;;;;;;;;;;29.61;38.72;94217.81;4941248;28;9169;-61
2023/05/31 11:34:34;;;;;;;;;;;;;;;29.61;37.84;94212.28;4934480;28;9596;-61
2023/05/31 11:37:05;;;;;;;;;;;;;;;29.60;38.03;94205.97;4935141;28;7283;-61
2023/05/31 11:40:05;;;;;;;;;;;;;;;29.62;37.86;94211.00;4933146;28;7276;-61
2023/05/31 11:42:51;;;;;;;;;;;;;;;29.63;37.56;94212.47;4932763;28;8162;-61
2023/05/31 11:45:40;;;;;;;;;;;;;;;29.65;37.64;94209.91;4939431;28;9363;-62
2023/05/31 11:49:05;;;;;;;;;;;;;;;29.65;36.87;94199.56;4923839;28;7313;-61
2023/05/31 11:51:48;;;;;;;;;;;;;;;29.66;36.84;94195.53;4927499;28;7170;-62
2023/05/31 11:54:45;;;;;;;;;;;;;;;29.68;37.41;94203.28;4934964;28;7273;-61
2023/05/31 11:57:12;;;;;;;;;;;;;;;29.69;37.18;94201.97;4914281;28;8890;-61
2023/05/31 11:59:41;;;;;;;;;;;;;;;29.70;36.95;94198.69;4939078;28;9139;-61
2023/05/31 12:02:19;;;;;;;;;;;;;;;29.72;37.16;94198.88;4919353;28;7072;-61
2023/05/31 12:04:59;;;;;;;;;;;;;;;29.73;36.54;94194.09;4937601;28;7461;-61
2023/05/31 12:08:16;;;;;;;;;;;;;;;29.76;37.34;94190.25;4969848;28;7299;-62
2023/05/31 12:11:01;;;;;;;;;;;;;;;29.78;36.73;94187.66;4945935;28;8734;-62
2023/05/31 12:13:58;;;;;;;;;;;;;;;29.79;36.04;94186.41;4932122;29;9114;-62
2023/05/31 12:16:35;;;;;;;;;;;;;;;29.79;36.79;94169.75;4898784;29;7026;-61
2023/05/31 12:19:18;;;;;;;;;;;;;;;29.80;36.96;94176.78;4874036;29;7080;-62
2023/05/31 12:21:44;;;;;;;;;;;;;;;29.81;36.07;94181.06;4874978;29;7217;-62
2023/05/31 12:24:14;;;;;;;;;;;;;;;29.83;35.55;94188.81;4885707;29;9070;-61
2023/05/31 12:26:51;;;;;;;;;;;;;;;29.84;35.89;94176.44;4892564;29;7533;-62
2023/05/31 12:29:57;;;;;;;;;;;;;;;29.87;35.16;94158.72;4875187;29;7410;-61
2023/05/31 12:32:53;;;;;;;;;;;;;;;29.86;35.31;94171.09;4825678;29;7384;-62
2023/05/31 12:35:40;;;;;;;;;;;;;;;29.86;35.41;94174.63;4859346;29;9299;-61
2023/05/31 12:38:08;;;;;;;;;;;;;;;29.85;34.96;94172.38;4856619;29;9370;-61
2023/05/31 12:40:42;;;;;;;;;;;;;;;29.82;34.65;94163.09;4837226;29;7255;-61
2023/05/31 12:43:37;;;;;;;;;;;;;;;29.81;34.82;94161.66;4838766;29;7039;-61
2023/05/31 12:46:21;;;;;;;;;;;;;;;29.82;34.72;94174.19;4816406;29;7484;-61
2023/05/31 12:49:22;;;;;;;;;;;;;;;29.85;34.13;94156.50;4850546;29;7023;-61
2023/05/31 12:52:15;;;;;;;;;;;;;;;29.86;34.30;94160.75;4849826;29;9398;-61
2023/05/31 12:54:45;;;;;;;;;;;;;;;29.87;34.17;94159.47;4854251;29;7119;-61
2023/05/31 12:57:11;;;;;;;;;;;;;;;29.86;34.15;94155.22;4852840;29;7198;-61
2023/05/31 12:59:39;;;;;;;;;;;;;;;29.89;33.59;94161.69;4850186;29;7406;-61
2023/05/31 13:02:14;;;;;;;;;;;;;;;29.92;34.66;94163.38;4860917;29;9422;-61
2023/05/31 13:04:54;;;;;;;;;;;;;;;29.90;34.46;94158.38;4867541;29;9489;-61
2023/05/31 13:07:53;;;;;;;;;;;;;;;29.94;33.13;94161.53;4943256;28;7514;-62
2023/05/31 13:10:21;;;;;;;;;;;;;;;29.94;33.72;94153.22;4966128;28;7222;-62
2023/05/31 13:12:49;;;;;;;;;;;;;;;29.99;33.78;94157.13;4947682;28;8232;-62
2023/05/31 13:15:15;;;;;;;;;;;;;;;30.01;33.98;94158.06;4936990;28;9409;-62
2023/05/31 13:17:54;;;;;;;;;;;;;;;30.00;34.58;94147.50;4935804;28;8980;-61
2023/05/31 13:20:55;;;;;;;;;;;;;;;30.01;34.06;94146.25;4968003;28;7427;-62
2023/05/31 13:23:31;;;;;;;;;;;;;;;29.99;33.73;94152.34;4941782;28;9177;-61
2023/05/31 13:26:06;;;;;;;;;;;;;;;30.03;34.33;94147.19;4967997;28;8789;-62
2023/05/31 13:28:46;;;;;;;;;;;;;;;30.04;34.58;94150.66;4953918;28;7256;-61
2023/05/31 13:31:22;;;;;;;;;;;;;;;30.06;34.39;94148.84;4983734;28;7329;-61
2023/05/31 13:33:50;;;;;;;;;;;;;;;30.06;34.38;94143.28;4967574;28;7621;-62
2023/05/31 13:36:17;;;;;;;;;;;;;;;30.08;34.53;94140.72;4970591;28;7465;-62
2023/05/31 13:38:48;;;;;;;;;;;;;;;30.08;34.29;94135.16;4949795;28;9266;-62
2023/05/31 13:41:46;;;;;;;;;;;;;;;30.10;34.80;94137.41;4978041;28;9117;-61
2023/05/31 13:44:20;;;;;;;;;;;;;;;30.11;34.43;94134.09;4981616;28;8758;-62
2023/05/31 13:46:48;;;;;;;;;;;;;;;30.12;34.73;94146.69;4950264;29;7254;-61
2023/05/31 13:49:19;;;;;;;;;;;;;;;30.12;34.30;94138.34;4950820;28;9026;-62
2023/05/31 13:51:45;;;;;;;;;;;;;;;30.15;35.04;94137.25;4951842;28;8722;-61
2023/05/31 13:54:12;;;;;;;;;;;;;;;30.15;33.60;94139.28;4977688;28;8724;-61
2023/05/31 13:56:38;;;;;;;;;;;;;;;30.17;33.75;94137.44;4964944;28;8748;-61
2023/05/31 13:59:05;;;;;;;;;;;;;;;30.17;33.87;94134.66;5014545;28;9138;-61
2023/05/31 14:01:35;;;;;;;;;;;;;;;30.18;34.59;94133.38;5023972;28;7044;-61
2023/05/31 14:04:02;;;;;;;;;;;;;;;30.19;35.23;94126.53;5010972;28;6875;-62